sensor_id;sensor_type;location;lat;lon;timestamp;pressure;altitude;pressure_sealevel;temperature;humidity
47636;BME280;33364;50.766;15.338;2023-07-24T00:00:24;94553.78;;;15.45;64.76
47636;BME280;33364;50.766;15.338;2023-07-24T00:03:10;94551.56;;;15.47;66.01
47636;BME280;33364;50.766;15.338;2023-07-24T00:05:35;94544.25;;;15.44;66.10
47636;BME280;33364;50.766;15.338;2023-07-24T00:08:01;94554.84;;;15.52;65.81
47636;BME280;33364;50.766;15.338;2023-07-24T00:10:27;94545.34;;;15.43;64.63
47636;BME280;33364;50.766;15.338;2023-07-24T00:12:53;94553.91;;;15.28;66.83
47636;BME280;33364;50.766;15.338;2023-07-24T00:15:18;94554.16;;;15.35;66.41
47636;BME280;33364;50.766;15.338;2023-07-24T00:17:45;94552.22;;;15.44;66.42
47636;BME280;33364;50.766;15.338;2023-07-24T00:20:11;94554.69;;;15.49;66.68
47636;BME280;33364;50.766;15.338;2023-07-24T00:22:37;94550.00;;;15.46;65.96
47636;BME280;33364;50.766;15.338;2023-07-24T00:25:02;94546.31;;;15.38;66.68
47636;BME280;33364;50.766;15.338;2023-07-24T00:27:28;94541.59;;;15.44;66.63
47636;BME280;33364;50.766;15.338;2023-07-24T00:29:54;94547.53;;;15.41;66.41
47636;BME280;33364;50.766;15.338;2023-07-24T00:32:20;94536.50;;;15.30;66.57
47636;BME280;33364;50.766;15.338;2023-07-24T00:34:46;94531.50;;;15.29;67.08
47636;BME280;33364;50.766;15.338;2023-07-24T00:37:11;94546.19;;;15.35;66.81
47636;BME280;33364;50.766;15.338;2023-07-24T00:39:37;94545.09;;;15.36;66.03
47636;BME280;33364;50.766;15.338;2023-07-24T00:42:03;94539.66;;;15.32;66.19
47636;BME280;33364;50.766;15.338;2023-07-24T00:44:29;94545.09;;;15.36;66.58
47636;BME280;33364;50.766;15.338;2023-07-24T00:46:54;94543.09;;;15.33;66.51
47636;BME280;33364;50.766;15.338;2023-07-24T00:49:20;94554.16;;;15.35;66.79
47636;BME280;33364;50.766;15.338;2023-07-24T00:51:47;94548.91;;;15.47;66.43
47636;BME280;33364;50.766;15.338;2023-07-24T00:54:16;94539.97;;;15.51;66.92
47636;BME280;33364;50.766;15.338;2023-07-24T00:56:44;94536.59;;;15.21;67.77
47636;BME280;33364;50.766;15.338;2023-07-24T00:59:10;94533.66;;;15.35;67.52
47636;BME280;33364;50.766;15.338;2023-07-24T01:01:37;94533.59;;;15.23;67.22
47636;BME280;33364;50.766;15.338;2023-07-24T01:04:05;94531.78;;;15.15;67.55
47636;BME280;33364;50.766;15.338;2023-07-24T01:06:31;94528.25;;;15.02;67.84
47636;BME280;33364;50.766;15.338;2023-07-24T01:08:57;94524.25;;;14.96;67.57
47636;BME280;33364;50.766;15.338;2023-07-24T01:11:34;94526.53;;;15.06;67.68
47636;BME280;33364;50.766;15.338;2023-07-24T01:14:08;94524.97;;;15.05;67.97
47636;BME280;33364;50.766;15.338;2023-07-24T01:16:41;94513.28;;;15.18;66.98
47636;BME280;33364;50.766;15.338;2023-07-24T01:19:44;94506.19;;;15.02;67.86
47636;BME280;33364;50.766;15.338;2023-07-24T01:27:23;94498.75;;;14.95;68.91
47636;BME280;33364;50.766;15.338;2023-07-24T01:29:49;94507.06;;;14.94;68.16
47636;BME280;33364;50.766;15.338;2023-07-24T01:32:15;94513.34;;;14.89;68.68
47636;BME280;33364;50.766;15.338;2023-07-24T01:34:42;94516.50;;;14.83;68.25
47636;BME280;33364;50.766;15.338;2023-07-24T01:37:09;94513.44;;;14.72;68.93
47636;BME280;33364;50.766;15.338;2023-07-24T01:39:37;94506.66;;;14.83;68.98
47636;BME280;33364;50.766;15.338;2023-07-24T01:42:04;94512.69;;;14.92;68.65
47636;BME280;33364;50.766;15.338;2023-07-24T01:44:30;94507.19;;;14.97;68.56
47636;BME280;33364;50.766;15.338;2023-07-24T01:46:56;94509.00;;;15.05;67.80
47636;BME280;33364;50.766;15.338;2023-07-24T01:49:21;94508.88;;;15.02;68.60
47636;BME280;33364;50.766;15.338;2023-07-24T01:51:47;94500.75;;;14.98;68.06
47636;BME280;33364;50.766;15.338;2023-07-24T01:54:13;94504.88;;;14.96;68.04
47636;BME280;33364;50.766;15.338;2023-07-24T01:56:39;94507.13;;;15.06;67.42
47636;BME280;33364;50.766;15.338;2023-07-24T01:59:05;94507.72;;;15.11;68.03
47636;BME280;33364;50.766;15.338;2023-07-24T02:01:31;94504.78;;;15.04;68.59
47636;BME280;33364;50.766;15.338;2023-07-24T02:03:57;94502.19;;;14.96;69.25
47636;BME280;33364;50.766;15.338;2023-07-24T02:06:23;94502.84;;;14.93;68.53
47636;BME280;33364;50.766;15.338;2023-07-24T02:08:48;94501.34;;;14.83;69.15
47636;BME280;33364;50.766;15.338;2023-07-24T02:11:17;94510.03;;;14.92;68.33
47636;BME280;33364;50.766;15.338;2023-07-24T02:13:46;94513.16;;;14.94;67.75
47636;BME280;33364;50.766;15.338;2023-07-24T02:16:13;94513.97;;;14.86;68.54
47636;BME280;33364;50.766;15.338;2023-07-24T02:18:41;94514.16;;;14.81;69.43
47636;BME280;33364;50.766;15.338;2023-07-24T02:21:07;94507.31;;;14.80;67.99
47636;BME280;33364;50.766;15.338;2023-07-24T02:23:33;94507.94;;;14.77;69.91
47636;BME280;33364;50.766;15.338;2023-07-24T02:25:59;94509.31;;;14.83;69.13
47636;BME280;33364;50.766;15.338;2023-07-24T02:28:24;94517.81;;;14.97;68.88
47636;BME280;33364;50.766;15.338;2023-07-24T02:30:50;94514.38;;;14.97;69.17
47636;BME280;33364;50.766;15.338;2023-07-24T02:33:17;94516.66;;;15.07;69.65
47636;BME280;33364;50.766;15.338;2023-07-24T02:35:43;94518.88;;;15.05;68.43
47636;BME280;33364;50.766;15.338;2023-07-24T02:38:09;94516.09;;;15.01;68.80
47636;BME280;33364;50.766;15.338;2023-07-24T02:40:35;94509.13;;;15.09;68.53
47636;BME280;33364;50.766;15.338;2023-07-24T02:43:01;94506.78;;;15.07;69.63
47636;BME280;33364;50.766;15.338;2023-07-24T02:45:27;94498.50;;;15.09;68.93
47636;BME280;33364;50.766;15.338;2023-07-24T02:47:53;94494.88;;;15.13;69.02
47636;BME280;33364;50.766;15.338;2023-07-24T02:50:19;94491.50;;;15.04;69.16
47636;BME280;33364;50.766;15.338;2023-07-24T02:52:44;94495.66;;;15.14;69.10
47636;BME280;33364;50.766;15.338;2023-07-24T02:55:10;94494.66;;;15.18;69.14
47636;BME280;33364;50.766;15.338;2023-07-24T02:57:36;94500.66;;;15.15;68.22
47636;BME280;33364;50.766;15.338;2023-07-24T03:00:02;94495.22;;;15.12;69.07
47636;BME280;33364;50.766;15.338;2023-07-24T03:02:28;94491.41;;;15.13;69.18
47636;BME280;33364;50.766;15.338;2023-07-24T03:04:54;94490.91;;;15.19;68.72
47636;BME280;33364;50.766;15.338;2023-07-24T03:07:20;94494.03;;;15.21;69.45
47636;BME280;33364;50.766;15.338;2023-07-24T03:09:45;94511.00;;;15.08;70.33
47636;BME280;33364;50.766;15.338;2023-07-24T03:12:11;94505.31;;;15.18;70.30
47636;BME280;33364;50.766;15.338;2023-07-24T03:14:37;94505.97;;;15.15;69.33
47636;BME280;33364;50.766;15.338;2023-07-24T03:17:03;94499.28;;;15.09;69.31
47636;BME280;33364;50.766;15.338;2023-07-24T03:19:29;94507.91;;;15.06;69.36
47636;BME280;33364;50.766;15.338;2023-07-24T03:21:54;94505.44;;;15.01;69.66
47636;BME280;33364;50.766;15.338;2023-07-24T03:24:20;94501.16;;;15.09;70.34
47636;BME280;33364;50.766;15.338;2023-07-24T03:26:46;94504.59;;;15.09;69.33
47636;BME280;33364;50.766;15.338;2023-07-24T03:29:12;94516.00;;;15.10;69.82
47636;BME280;33364;50.766;15.338;2023-07-24T03:31:37;94520.81;;;15.16;70.71
47636;BME280;33364;50.766;15.338;2023-07-24T03:34:03;94521.34;;;15.10;70.33
47636;BME280;33364;50.766;15.338;2023-07-24T03:36:29;94522.72;;;15.16;70.39
47636;BME280;33364;50.766;15.338;2023-07-24T03:38:55;94516.41;;;15.20;69.51
47636;BME280;33364;50.766;15.338;2023-07-24T03:41:20;94509.91;;;15.30;69.22
47636;BME280;33364;50.766;15.338;2023-07-24T03:43:47;94510.19;;;15.37;69.58
47636;BME280;33364;50.766;15.338;2023-07-24T03:46:12;94507.44;;;15.46;68.65
47636;BME280;33364;50.766;15.338;2023-07-24T03:48:38;94504.75;;;15.54;68.92
47636;BME280;33364;50.766;15.338;2023-07-24T03:51:04;94504.84;;;15.58;69.58
47636;BME280;33364;50.766;15.338;2023-07-24T03:53:30;94502.84;;;15.55;69.52
47636;BME280;33364;50.766;15.338;2023-07-24T03:55:55;94502.53;;;15.56;68.62
47636;BME280;33364;50.766;15.338;2023-07-24T03:58:21;94492.53;;;15.53;68.95
47636;BME280;33364;50.766;15.338;2023-07-24T04:00:47;94488.09;;;15.57;69.00
47636;BME280;33364;50.766;15.338;2023-07-24T04:03:13;94486.03;;;15.63;68.33
47636;BME280;33364;50.766;15.338;2023-07-24T04:05:39;94486.72;;;15.72;68.54
47636;BME280;33364;50.766;15.338;2023-07-24T04:08:05;94488.72;;;15.75;69.56
47636;BME280;33364;50.766;15.338;2023-07-24T04:10:30;94490.41;;;15.80;69.15
47636;BME280;33364;50.766;15.338;2023-07-24T04:12:56;94486.50;;;15.77;69.16
47636;BME280;33364;50.766;15.338;2023-07-24T04:15:23;94475.53;;;15.79;69.88
47636;BME280;33364;50.766;15.338;2023-07-24T04:17:49;94465.44;;;15.84;69.50
47636;BME280;33364;50.766;15.338;2023-07-24T04:20:14;94472.13;;;15.90;68.85
47636;BME280;33364;50.766;15.338;2023-07-24T04:22:40;94472.56;;;15.92;68.74
47636;BME280;33364;50.766;15.338;2023-07-24T04:25:06;94465.47;;;15.96;69.61
47636;BME280;33364;50.766;15.338;2023-07-24T04:27:33;94469.81;;;16.01;69.50
47636;BME280;33364;50.766;15.338;2023-07-24T04:29:58;94456.34;;;15.97;69.50
47636;BME280;33364;50.766;15.338;2023-07-24T04:32:26;94460.59;;;15.98;68.79
47636;BME280;33364;50.766;15.338;2023-07-24T04:34:53;94460.25;;;16.00;68.26
47636;BME280;33364;50.766;15.338;2023-07-24T04:37:19;94459.03;;;15.97;68.78
47636;BME280;33364;50.766;15.338;2023-07-24T04:39:44;94456.03;;;15.99;69.24
47636;BME280;33364;50.766;15.338;2023-07-24T04:42:10;94454.41;;;16.07;69.04
47636;BME280;33364;50.766;15.338;2023-07-24T04:44:36;94441.19;;;16.10;69.20
47636;BME280;33364;50.766;15.338;2023-07-24T04:47:02;94447.41;;;16.14;69.61
47636;BME280;33364;50.766;15.338;2023-07-24T04:49:29;94435.97;;;16.14;69.77
47636;BME280;33364;50.766;15.338;2023-07-24T04:51:55;94428.41;;;16.16;70.02
47636;BME280;33364;50.766;15.338;2023-07-24T04:54:21;94424.75;;;16.20;69.96
47636;BME280;33364;50.766;15.338;2023-07-24T04:56:47;94424.44;;;16.22;69.44
47636;BME280;33364;50.766;15.338;2023-07-24T04:59:12;94420.09;;;16.29;70.02
47636;BME280;33364;50.766;15.338;2023-07-24T05:01:38;94420.09;;;16.29;69.41
47636;BME280;33364;50.766;15.338;2023-07-24T05:04:04;94429.53;;;16.27;70.35
47636;BME280;33364;50.766;15.338;2023-07-24T05:06:30;94411.44;;;16.32;70.35
47636;BME280;33364;50.766;15.338;2023-07-24T05:08:55;94426.66;;;16.32;69.99
47636;BME280;33364;50.766;15.338;2023-07-24T05:11:21;94429.31;;;16.32;70.03
47636;BME280;33364;50.766;15.338;2023-07-24T05:13:47;94429.19;;;16.40;69.95
47636;BME280;33364;50.766;15.338;2023-07-24T05:16:13;94433.63;;;16.48;70.54
47636;BME280;33364;50.766;15.338;2023-07-24T05:18:39;94433.19;;;16.46;70.84
47636;BME280;33364;50.766;15.338;2023-07-24T05:21:04;94426.19;;;16.42;71.70
47636;BME280;33364;50.766;15.338;2023-07-24T05:23:30;94432.63;;;16.53;70.34
47636;BME280;33364;50.766;15.338;2023-07-24T05:26:00;94419.94;;;16.50;70.36
47636;BME280;33364;50.766;15.338;2023-07-24T05:28:27;94420.88;;;16.42;71.40
47636;BME280;33364;50.766;15.338;2023-07-24T05:30:54;94413.41;;;16.47;71.01
47636;BME280;33364;50.766;15.338;2023-07-24T05:33:20;94416.09;;;16.47;71.49
47636;BME280;33364;50.766;15.338;2023-07-24T05:35:46;94414.63;;;16.50;71.25
47636;BME280;33364;50.766;15.338;2023-07-24T05:38:11;94427.28;;;16.53;71.31
47636;BME280;33364;50.766;15.338;2023-07-24T05:40:37;94425.22;;;16.59;71.39
47636;BME280;33364;50.766;15.338;2023-07-24T05:43:03;94432.59;;;16.77;70.74
47636;BME280;33364;50.766;15.338;2023-07-24T05:45:29;94429.16;;;16.89;70.41
47636;BME280;33364;50.766;15.338;2023-07-24T05:47:55;94415.88;;;17.05;69.35
47636;BME280;33364;50.766;15.338;2023-07-24T05:50:21;94422.84;;;17.09;69.10
47636;BME280;33364;50.766;15.338;2023-07-24T05:52:46;94428.50;;;17.20;68.35
47636;BME280;33364;50.766;15.338;2023-07-24T05:55:12;94428.22;;;17.37;68.02
47636;BME280;33364;50.766;15.338;2023-07-24T05:57:38;94429.53;;;17.59;67.07
47636;BME280;33364;50.766;15.338;2023-07-24T06:00:05;94432.47;;;17.82;66.82
47636;BME280;33364;50.766;15.338;2023-07-24T06:02:31;94424.59;;;17.89;63.73
47636;BME280;33364;50.766;15.338;2023-07-24T06:04:57;94416.44;;;18.13;62.87
47636;BME280;33364;50.766;15.338;2023-07-24T06:07:23;94418.56;;;18.39;61.82
47636;BME280;33364;50.766;15.338;2023-07-24T06:09:49;94408.47;;;18.64;61.30
47636;BME280;33364;50.766;15.338;2023-07-24T06:12:15;94409.63;;;18.82;60.17
47636;BME280;33364;50.766;15.338;2023-07-24T06:14:41;94406.41;;;18.92;58.64
47636;BME280;33364;50.766;15.338;2023-07-24T06:17:06;94414.00;;;19.09;58.80
47636;BME280;33364;50.766;15.338;2023-07-24T06:19:32;94410.81;;;19.04;57.44
47636;BME280;33364;50.766;15.338;2023-07-24T06:21:58;94407.41;;;19.03;58.57
47636;BME280;33364;50.766;15.338;2023-07-24T06:24:24;94403.44;;;19.16;59.21
47636;BME280;33364;50.766;15.338;2023-07-24T06:26:50;94408.38;;;19.33;55.70
47636;BME280;33364;50.766;15.338;2023-07-24T06:29:16;94389.63;;;19.53;55.11
47636;BME280;33364;50.766;15.338;2023-07-24T06:31:42;94390.13;;;19.81;56.01
47636;BME280;33364;50.766;15.338;2023-07-24T06:34:08;94382.63;;;19.90;55.96
47636;BME280;33364;50.766;15.338;2023-07-24T06:36:34;94378.34;;;20.08;55.85
47636;BME280;33364;50.766;15.338;2023-07-24T06:38:59;94376.81;;;20.11;55.93
47636;BME280;33364;50.766;15.338;2023-07-24T06:41:25;94374.50;;;20.32;52.92
47636;BME280;33364;50.766;15.338;2023-07-24T06:43:51;94369.72;;;20.45;52.70
47636;BME280;33364;50.766;15.338;2023-07-24T06:46:18;94368.34;;;20.58;51.95
47636;BME280;33364;50.766;15.338;2023-07-24T06:48:44;94365.47;;;20.70;52.84
47636;BME280;33364;50.766;15.338;2023-07-24T06:51:10;94369.47;;;20.83;50.02
47636;BME280;33364;50.766;15.338;2023-07-24T06:53:36;94370.47;;;21.01;51.54
47636;BME280;33364;50.766;15.338;2023-07-24T06:56:02;94365.41;;;21.26;50.25
47636;BME280;33364;50.766;15.338;2023-07-24T06:58:27;94362.66;;;21.19;49.70
47636;BME280;33364;50.766;15.338;2023-07-24T07:00:53;94348.81;;;21.54;51.99
47636;BME280;33364;50.766;15.338;2023-07-24T07:03:19;94355.88;;;21.69;50.19
47636;BME280;33364;50.766;15.338;2023-07-24T07:05:45;94361.56;;;21.61;48.20
47636;BME280;33364;50.766;15.338;2023-07-24T07:08:10;94365.28;;;21.49;48.52
47636;BME280;33364;50.766;15.338;2023-07-24T07:10:36;94368.72;;;21.46;48.18
47636;BME280;33364;50.766;15.338;2023-07-24T07:13:02;94361.81;;;21.48;48.95
47636;BME280;33364;50.766;15.338;2023-07-24T07:15:28;94362.78;;;21.67;50.10
47636;BME280;33364;50.766;15.338;2023-07-24T07:17:53;94361.53;;;21.98;49.90
47636;BME280;33364;50.766;15.338;2023-07-24T07:20:20;94379.47;;;21.86;48.20
47636;BME280;33364;50.766;15.338;2023-07-24T07:22:46;94377.78;;;22.12;49.23
47636;BME280;33364;50.766;15.338;2023-07-24T07:25:12;94374.09;;;22.30;49.39
47636;BME280;33364;50.766;15.338;2023-07-24T07:27:38;94389.50;;;22.37;48.41
47636;BME280;33364;50.766;15.338;2023-07-24T07:30:04;94401.81;;;22.38;47.44
47636;BME280;33364;50.766;15.338;2023-07-24T07:32:30;94403.78;;;22.41;47.17
47636;BME280;33364;50.766;15.338;2023-07-24T07:34:56;94398.25;;;22.23;46.45
47636;BME280;33364;50.766;15.338;2023-07-24T07:37:23;94390.28;;;22.38;46.45
47636;BME280;33364;50.766;15.338;2023-07-24T07:39:49;94378.94;;;22.69;46.67
47636;BME280;33364;50.766;15.338;2023-07-24T07:42:15;94377.16;;;22.91;46.83
47636;BME280;33364;50.766;15.338;2023-07-24T07:44:41;94373.47;;;22.51;45.52
47636;BME280;33364;50.766;15.338;2023-07-24T07:47:06;94368.03;;;22.44;46.09
47636;BME280;33364;50.766;15.338;2023-07-24T07:49:32;94369.88;;;22.33;47.80
47636;BME280;33364;50.766;15.338;2023-07-24T07:51:58;94364.84;;;22.28;45.43
47636;BME280;33364;50.766;15.338;2023-07-24T07:54:24;94357.72;;;21.99;44.92
47636;BME280;33364;50.766;15.338;2023-07-24T07:56:49;94356.41;;;21.85;46.58
47636;BME280;33364;50.766;15.338;2023-07-24T07:59:15;94360.53;;;22.16;45.79
47636;BME280;33364;50.766;15.338;2023-07-24T08:01:41;94353.34;;;22.31;47.02
47636;BME280;33364;50.766;15.338;2023-07-24T08:04:07;94347.47;;;22.15;46.20
47636;BME280;33364;50.766;15.338;2023-07-24T08:06:33;94345.06;;;22.03;47.28
47636;BME280;33364;50.766;15.338;2023-07-24T08:08:59;94351.09;;;21.92;48.66
47636;BME280;33364;50.766;15.338;2023-07-24T08:11:25;94344.34;;;21.69;48.62
47636;BME280;33364;50.766;15.338;2023-07-24T08:13:50;94354.50;;;21.89;48.64
47636;BME280;33364;50.766;15.338;2023-07-24T08:16:16;94351.47;;;21.91;48.10
47636;BME280;33364;50.766;15.338;2023-07-24T08:18:48;94349.81;;;21.79;47.69
47636;BME280;33364;50.766;15.338;2023-07-24T08:21:15;94352.66;;;22.48;47.12
47636;BME280;33364;50.766;15.338;2023-07-24T08:23:41;94351.59;;;22.60;45.69
47636;BME280;33364;50.766;15.338;2023-07-24T08:26:07;94356.53;;;23.23;46.12
47636;BME280;33364;50.766;15.338;2023-07-24T08:28:33;94349.59;;;23.22;44.57
47636;BME280;33364;50.766;15.338;2023-07-24T08:31:02;94349.13;;;22.99;45.10
47636;BME280;33364;50.766;15.338;2023-07-24T08:33:29;94355.22;;;22.82;46.40
47636;BME280;33364;50.766;15.338;2023-07-24T08:36:03;94356.75;;;22.86;46.59
47636;BME280;33364;50.766;15.338;2023-07-24T08:38:29;94364.16;;;23.03;47.49
47636;BME280;33364;50.766;15.338;2023-07-24T08:41:05;94362.25;;;23.07;45.52
47636;BME280;33364;50.766;15.338;2023-07-24T08:43:32;94379.91;;;22.94;46.26
47636;BME280;33364;50.766;15.338;2023-07-24T08:45:59;94385.78;;;22.56;47.27
47636;BME280;33364;50.766;15.338;2023-07-24T08:48:34;94380.19;;;22.24;48.19
47636;BME280;33364;50.766;15.338;2023-07-24T08:51:04;94377.88;;;22.22;49.20
47636;BME280;33364;50.766;15.338;2023-07-24T08:53:32;94372.44;;;22.15;50.30
47636;BME280;33364;50.766;15.338;2023-07-24T08:55:59;94371.63;;;22.11;51.44
47636;BME280;33364;50.766;15.338;2023-07-24T08:58:25;94363.41;;;21.94;50.83
47636;BME280;33364;50.766;15.338;2023-07-24T09:00:51;94357.19;;;21.89;50.68
47636;BME280;33364;50.766;15.338;2023-07-24T09:03:18;94349.44;;;21.81;51.25
47636;BME280;33364;50.766;15.338;2023-07-24T09:05:44;94359.50;;;21.87;53.06
47636;BME280;33364;50.766;15.338;2023-07-24T09:08:10;94355.41;;;22.01;54.70
47636;BME280;33364;50.766;15.338;2023-07-24T09:10:36;94343.47;;;22.49;51.24
47636;BME280;33364;50.766;15.338;2023-07-24T09:13:02;94345.88;;;22.68;48.20
47636;BME280;33364;50.766;15.338;2023-07-24T09:15:39;94348.69;;;22.83;47.94
47636;BME280;33364;50.766;15.338;2023-07-24T09:18:05;94346.78;;;22.87;49.37
47636;BME280;33364;50.766;15.338;2023-07-24T09:20:41;94337.53;;;22.88;49.69
47636;BME280;33364;50.766;15.338;2023-07-24T09:23:09;94325.09;;;22.65;48.30
47636;BME280;33364;50.766;15.338;2023-07-24T09:25:35;94329.59;;;22.47;49.14
47636;BME280;33364;50.766;15.338;2023-07-24T09:28:12;94320.38;;;22.48;49.69
47636;BME280;33364;50.766;15.338;2023-07-24T09:30:39;94313.25;;;22.12;50.10
47636;BME280;33364;50.766;15.338;2023-07-24T09:33:06;94311.81;;;22.32;51.28
47636;BME280;33364;50.766;15.338;2023-07-24T09:35:32;94310.25;;;22.24;51.20
47636;BME280;33364;50.766;15.338;2023-07-24T09:38:06;94319.47;;;22.26;50.15
47636;BME280;33364;50.766;15.338;2023-07-24T09:43:26;94330.38;;;22.48;50.51
47636;BME280;33364;50.766;15.338;2023-07-24T09:45:53;94337.28;;;22.45;49.33
47636;BME280;33364;50.766;15.338;2023-07-24T09:48:21;94345.31;;;23.07;48.35
47636;BME280;33364;50.766;15.338;2023-07-24T09:50:50;94329.31;;;23.49;48.75
47636;BME280;33364;50.766;15.338;2023-07-24T09:56:24;94322.78;;;23.47;47.90
47636;BME280;33364;50.766;15.338;2023-07-24T09:58:51;94315.38;;;23.33;47.35
47636;BME280;33364;50.766;15.338;2023-07-24T10:01:21;94324.69;;;23.61;47.21
47636;BME280;33364;50.766;15.338;2023-07-24T10:03:48;94303.53;;;24.05;46.90
47636;BME280;33364;50.766;15.338;2023-07-24T10:06:18;94305.44;;;24.33;46.99
47636;BME280;33364;50.766;15.338;2023-07-24T10:08:44;94293.16;;;24.18;47.30
47636;BME280;33364;50.766;15.338;2023-07-24T10:11:14;94278.84;;;24.46;45.99
47636;BME280;33364;50.766;15.338;2023-07-24T10:13:41;94288.03;;;24.59;46.47
47636;BME280;33364;50.766;15.338;2023-07-24T10:16:07;94282.69;;;24.52;46.38
47636;BME280;33364;50.766;15.338;2023-07-24T10:18:43;94279.94;;;24.62;46.38
47636;BME280;33364;50.766;15.338;2023-07-24T10:21:10;94288.41;;;24.64;46.05
47636;BME280;33364;50.766;15.338;2023-07-24T10:23:40;94269.06;;;24.94;46.94
47636;BME280;33364;50.766;15.338;2023-07-24T10:26:07;94273.59;;;25.11;46.94
47636;BME280;33364;50.766;15.338;2023-07-24T10:28:35;94267.13;;;24.91;45.80
47636;BME280;33364;50.766;15.338;2023-07-24T10:31:06;94275.91;;;25.16;45.42
47636;BME280;33364;50.766;15.338;2023-07-24T10:33:44;94279.00;;;25.11;45.53
47636;BME280;33364;50.766;15.338;2023-07-24T10:36:10;94268.31;;;24.76;44.76
47636;BME280;33364;50.766;15.338;2023-07-24T10:38:40;94284.16;;;24.67;45.17
47636;BME280;33364;50.766;15.338;2023-07-24T10:41:07;94289.13;;;24.93;46.63
47636;BME280;33364;50.766;15.338;2023-07-24T10:43:59;94288.81;;;24.56;46.27
47636;BME280;33364;50.766;15.338;2023-07-24T10:46:39;94286.03;;;24.80;46.72
47636;BME280;33364;50.766;15.338;2023-07-24T10:49:08;94278.00;;;24.59;47.38
47636;BME280;33364;50.766;15.338;2023-07-24T10:51:34;94288.06;;;24.48;47.07
47636;BME280;33364;50.766;15.338;2023-07-24T10:54:04;94286.91;;;24.56;47.25
47636;BME280;33364;50.766;15.338;2023-07-24T10:56:30;94280.78;;;24.06;47.70
47636;BME280;33364;50.766;15.338;2023-07-24T10:58:56;94281.97;;;24.05;48.45
47636;BME280;33364;50.766;15.338;2023-07-24T11:01:23;94283.13;;;23.86;48.23
47636;BME280;33364;50.766;15.338;2023-07-24T11:03:49;94283.50;;;23.56;48.76
47636;BME280;33364;50.766;15.338;2023-07-24T11:06:17;94294.56;;;23.23;49.37
47636;BME280;33364;50.766;15.338;2023-07-24T11:08:57;94293.75;;;23.05;49.99
47636;BME280;33364;50.766;15.338;2023-07-24T11:11:31;94305.66;;;22.93;51.08
47636;BME280;33364;50.766;15.338;2023-07-24T11:13:58;94309.25;;;22.53;51.72
47636;BME280;33364;50.766;15.338;2023-07-24T11:16:23;94312.31;;;22.48;53.10
47636;BME280;33364;50.766;15.338;2023-07-24T11:18:50;94300.28;;;22.31;53.34
47636;BME280;33364;50.766;15.338;2023-07-24T11:21:17;94313.94;;;22.05;54.06
47636;BME280;33364;50.766;15.338;2023-07-24T11:23:54;94302.63;;;21.85;56.01
47636;BME280;33364;50.766;15.338;2023-07-24T11:26:21;94293.69;;;21.67;55.91
47636;BME280;33364;50.766;15.338;2023-07-24T11:28:49;94297.16;;;21.71;55.60
47636;BME280;33364;50.766;15.338;2023-07-24T11:31:15;94287.25;;;21.35;56.12
47636;BME280;33364;50.766;15.338;2023-07-24T11:33:41;94286.75;;;21.66;55.36
47636;BME280;33364;50.766;15.338;2023-07-24T11:36:09;94287.63;;;21.81;55.16
47636;BME280;33364;50.766;15.338;2023-07-24T11:38:35;94285.47;;;21.97;54.98
47636;BME280;33364;50.766;15.338;2023-07-24T11:41:03;94279.38;;;22.04;54.55
47636;BME280;33364;50.766;15.338;2023-07-24T11:43:29;94276.72;;;22.11;54.31
47636;BME280;33364;50.766;15.338;2023-07-24T11:45:55;94271.75;;;22.09;54.06
47636;BME280;33364;50.766;15.338;2023-07-24T11:48:22;94272.25;;;22.29;54.89
47636;BME280;33364;50.766;15.338;2023-07-24T11:50:56;94250.78;;;22.36;52.68
47636;BME280;33364;50.766;15.338;2023-07-24T11:53:27;94251.97;;;22.46;52.12
47636;BME280;33364;50.766;15.338;2023-07-24T11:55:54;94247.72;;;22.45;52.36
47636;BME280;33364;50.766;15.338;2023-07-24T12:00:47;94248.03;;;22.29;52.23
47636;BME280;33364;50.766;15.338;2023-07-24T12:05:41;94236.63;;;22.57;52.09
47636;BME280;33364;50.766;15.338;2023-07-24T12:08:08;94234.19;;;22.27;51.60
47636;BME280;33364;50.766;15.338;2023-07-24T12:10:37;94235.03;;;22.45;52.06
47636;BME280;33364;50.766;15.338;2023-07-24T12:13:03;94217.81;;;22.60;51.52
47636;BME280;33364;50.766;15.338;2023-07-24T12:15:29;94231.31;;;22.67;51.75
47636;BME280;33364;50.766;15.338;2023-07-24T12:17:55;94225.22;;;22.95;51.60
47636;BME280;33364;50.766;15.338;2023-07-24T12:20:22;94220.28;;;23.15;51.68
47636;BME280;33364;50.766;15.338;2023-07-24T12:22:49;94208.38;;;23.30;50.92
47636;BME280;33364;50.766;15.338;2023-07-24T12:25:15;94201.47;;;23.54;50.22
47636;BME280;33364;50.766;15.338;2023-07-24T12:27:41;94206.50;;;23.63;49.95
47636;BME280;33364;50.766;15.338;2023-07-24T12:30:07;94203.72;;;24.26;50.26
47636;BME280;33364;50.766;15.338;2023-07-24T12:32:34;94197.44;;;24.51;48.11
47636;BME280;33364;50.766;15.338;2023-07-24T12:35:01;94198.31;;;24.26;47.79
47636;BME280;33364;50.766;15.338;2023-07-24T12:37:27;94197.94;;;24.24;47.85
47636;BME280;33364;50.766;15.338;2023-07-24T12:39:53;94192.94;;;24.02;48.40
47636;BME280;33364;50.766;15.338;2023-07-24T12:42:19;94190.28;;;23.70;48.16
47636;BME280;33364;50.766;15.338;2023-07-24T12:44:45;94186.81;;;23.76;49.17
47636;BME280;33364;50.766;15.338;2023-07-24T12:47:11;94179.13;;;23.89;50.03
47636;BME280;33364;50.766;15.338;2023-07-24T12:49:37;94174.06;;;24.05;51.01
47636;BME280;33364;50.766;15.338;2023-07-24T12:52:04;94166.75;;;24.06;49.82
47636;BME280;33364;50.766;15.338;2023-07-24T12:54:30;94159.78;;;24.15;49.52
47636;BME280;33364;50.766;15.338;2023-07-24T12:56:56;94155.16;;;24.19;48.95
47636;BME280;33364;50.766;15.338;2023-07-24T12:59:22;94147.03;;;24.23;47.88
47636;BME280;33364;50.766;15.338;2023-07-24T13:01:48;94151.31;;;24.03;47.35
47636;BME280;33364;50.766;15.338;2023-07-24T13:04:14;94139.41;;;24.00;46.63